Date,TemperatureHighF,TemperatureAvgF,TemperatureLowF,DewpointHighF,DewpointAvgF,DewpointLowF,HumidityHigh,HumidityAvg,HumidityLow,PressureMaxIn,PressureMinIn,WindSpeedMaxMPH,WindSpeedAvgMPH,GustSpeedMaxMPH,PrecipitationSumIn
2013-2-1,48.8,36.0,26.2,33.0,25.5,20.9,84,67,40,30.32,30.21,15,6,19,0.00
2013-2-2,48.7,35.6,24.9,31.5,25.7,19.6,80,68,46,30.33,30.20,10,4,59,0.00
2013-2-3,56.5,42.0,30.4,27.7,23.7,18.5,77,51,25,30.22,30.10,20,9,26,0.00
2013-2-4,53.5,43.8,37.8,25.4,20.8,13.9,54,40,22,30.12,29.91,17,7,23,0.00
2013-2-5,43.4,39.4,33.5,29.3,21.4,14.5,74,50,33,30.00,29.87,23,9,33,0.00
2013-2-6,45.9,37.7,32.4,24.7,21.8,17.9,72,54,33,30.05,29.85,23,8,28,0.00
2013-2-7,38.7,32.9,28.0,26.6,20.9,11.6,78,62,35,29.99,29.84,18,6,25,0.00
2013-2-8,36.4,29.8,23.6,22.3,17.8,10.7,78,62,34,30.08,29.99,17,6,27,0.00
2013-2-9,41.3,29.2,0.5,27.3,19.2,0.5,100,67,54,30.14,30.04,16,5,20,0.00
2013-2-10,41.8,32.6,25.2,25.2,20.3,16.6,82,62,38,30.20,30.13,14,4,18,0.00
2013-2-11,47.8,34.6,24.5,29.5,22.5,17.8,78,62,38,30.24,30.11,23,10,62,0.00
2013-2-12,47.2,37.0,30.7,29.8,26.3,22.6,81,66,40,30.34,30.24,15,7,23,0.00
2013-2-13,45.3,37.9,31.2,32.0,28.5,25.8,81,69,55,30.41,30.27,13,6,25,0.00
2013-2-14,50.6,38.5,30.1,33.4,29.6,25.6,84,72,50,30.42,30.34,16,7,21,0.00
2013-2-15,55.9,40.6,30.0,35.7,30.4,25.3,84,69,43,30.41,30.20,14,5,15,0.00
2013-2-16,51.5,38.5,26.7,30.4,23.8,16.5,79,57,31,30.21,30.08,22,8,25,0.00
2013-2-17,43.7,31.4,23.5,21.9,17.2,6.7,78,59,23,30.13,29.98,11,4,16,0.00
2013-2-18,28.2,26.7,25.6,19.5,18.8,17.9,74,72,68,29.98,29.89,7,2,13,1.28
2013-2-19,37.1,30.7,24.0,26.2,19.0,16.6,74,62,44,29.87,29.63,12,5,18,0.00
2013-2-20,39.3,30.3,20.1,21.6,17.5,12.3,76,60,41,29.97,29.87,14,5,72,0.20
2013-2-21,37.0,31.0,23.5,23.6,21.1,17.2,80,67,45,30.08,29.95,21,8,26,1.28
2013-2-22,43.4,33.9,27.2,31.5,25.6,19.7,86,72,55,30.07,29.82,28,12,41,0.07
2013-2-23,36.0,29.3,23.6,22.9,17.7,11.8,77,62,37,30.25,29.94,18,6,26,0.00
2013-2-24,44.0,31.5,21.3,28.6,20.4,14.6,76,64,44,30.27,30.02,22,9,24,0.00
2013-2-25,37.0,33.0,25.3,29.5,20.4,11.1,84,60,40,30.22,29.95,26,9,34,0.01
2013-2-26,45.3,33.5,22.1,19.4,15.2,9.6,74,50,27,30.24,30.13,20,8,25,0.00
2013-2-27,44.6,37.5,31.1,30.9,21.2,14.0,66,52,41,30.24,30.16,22,9,26,0.00
2013-2-28,50.1,42.8,37.2,39.0,35.0,28.6,82,74,60,30.39,30.17,21,10,29,0.00